sensor_id;sensor_type;location;lat;lon;timestamp;P1;durP1;ratioP1;P2;durP2;ratioP2
9997;SDS011;5038;53.064;8.624;2024-01-10T00:01:02;16.90;;;14.07;;
9997;SDS011;5038;53.064;8.624;2024-01-10T00:03:31;16.67;;;13.37;;
9997;SDS011;5038;53.064;8.624;2024-01-10T00:06:00;15.23;;;13.20;;
9997;SDS011;5038;53.064;8.624;2024-01-10T00:08:30;19.27;;;14.27;;
9997;SDS011;5038;53.064;8.624;2024-01-10T00:10:59;14.57;;;13.07;;
9997;SDS011;5038;53.064;8.624;2024-01-10T00:13:27;18.37;;;15.17;;
9997;SDS011;5038;53.064;8.624;2024-01-10T00:15:55;17.10;;;13.03;;
9997;SDS011;5038;53.064;8.624;2024-01-10T00:18:25;17.93;;;13.97;;
9997;SDS011;5038;53.064;8.624;2024-01-10T00:20:55;16.33;;;13.83;;
9997;SDS011;5038;53.064;8.624;2024-01-10T00:23:23;17.47;;;14.13;;
9997;SDS011;5038;53.064;8.624;2024-01-10T00:25:51;16.87;;;15.10;;
9997;SDS011;5038;53.064;8.624;2024-01-10T00:28:20;17.97;;;14.30;;
9997;SDS011;5038;53.064;8.624;2024-01-10T00:30:48;18.40;;;15.70;;
9997;SDS011;5038;53.064;8.624;2024-01-10T00:33:16;16.80;;;14.83;;
9997;SDS011;5038;53.064;8.624;2024-01-10T00:35:44;16.60;;;14.90;;
9997;SDS011;5038;53.064;8.624;2024-01-10T00:38:14;17.87;;;15.80;;
9997;SDS011;5038;53.064;8.624;2024-01-10T00:40:42;16.53;;;14.83;;
9997;SDS011;5038;53.064;8.624;2024-01-10T00:43:10;17.47;;;14.80;;
9997;SDS011;5038;53.064;8.624;2024-01-10T00:45:39;17.83;;;14.60;;
9997;SDS011;5038;53.064;8.624;2024-01-10T00:48:07;17.77;;;14.40;;
9997;SDS011;5038;53.064;8.624;2024-01-10T00:50:35;16.43;;;14.47;;
9997;SDS011;5038;53.064;8.624;2024-01-10T00:53:03;18.20;;;16.00;;
9997;SDS011;5038;53.064;8.624;2024-01-10T00:55:33;16.20;;;14.67;;
9997;SDS011;5038;53.064;8.624;2024-01-10T00:58:01;17.03;;;14.20;;
9997;SDS011;5038;53.064;8.624;2024-01-10T01:00:29;17.93;;;15.37;;
9997;SDS011;5038;53.064;8.624;2024-01-10T01:02:59;17.57;;;14.90;;
9997;SDS011;5038;53.064;8.624;2024-01-10T01:05:27;16.23;;;13.93;;
9997;SDS011;5038;53.064;8.624;2024-01-10T01:07:56;18.27;;;14.73;;
9997;SDS011;5038;53.064;8.624;2024-01-10T01:10:24;16.27;;;14.30;;
9997;SDS011;5038;53.064;8.624;2024-01-10T01:12:53;19.13;;;15.60;;
9997;SDS011;5038;53.064;8.624;2024-01-10T01:15:22;19.00;;;15.80;;
9997;SDS011;5038;53.064;8.624;2024-01-10T01:17:50;19.33;;;15.40;;
9997;SDS011;5038;53.064;8.624;2024-01-10T01:20:18;19.87;;;15.50;;
9997;SDS011;5038;53.064;8.624;2024-01-10T01:22:47;20.33;;;17.93;;
9997;SDS011;5038;53.064;8.624;2024-01-10T01:25:15;19.87;;;17.70;;
9997;SDS011;5038;53.064;8.624;2024-01-10T01:27:44;19.73;;;17.27;;
9997;SDS011;5038;53.064;8.624;2024-01-10T01:30:13;21.60;;;18.97;;
9997;SDS011;5038;53.064;8.624;2024-01-10T01:32:42;21.10;;;17.83;;
9997;SDS011;5038;53.064;8.624;2024-01-10T01:35:10;22.00;;;18.67;;
9997;SDS011;5038;53.064;8.624;2024-01-10T01:37:38;21.77;;;18.50;;
9997;SDS011;5038;53.064;8.624;2024-01-10T01:40:07;20.20;;;18.10;;
9997;SDS011;5038;53.064;8.624;2024-01-10T01:42:36;22.40;;;19.43;;
9997;SDS011;5038;53.064;8.624;2024-01-10T01:45:04;24.70;;;20.97;;
9997;SDS011;5038;53.064;8.624;2024-01-10T01:47:34;22.30;;;19.90;;
9997;SDS011;5038;53.064;8.624;2024-01-10T01:50:03;23.17;;;20.60;;
9997;SDS011;5038;53.064;8.624;2024-01-10T01:52:32;24.20;;;19.43;;
9997;SDS011;5038;53.064;8.624;2024-01-10T01:55:02;25.70;;;21.17;;
9997;SDS011;5038;53.064;8.624;2024-01-10T01:57:32;24.90;;;20.53;;
9997;SDS011;5038;53.064;8.624;2024-01-10T02:00:01;23.97;;;20.30;;
9997;SDS011;5038;53.064;8.624;2024-01-10T02:02:31;22.37;;;19.70;;
9997;SDS011;5038;53.064;8.624;2024-01-10T02:05:02;23.47;;;20.20;;
9997;SDS011;5038;53.064;8.624;2024-01-10T02:07:30;23.40;;;20.20;;
9997;SDS011;5038;53.064;8.624;2024-01-10T02:09:59;22.83;;;19.43;;
9997;SDS011;5038;53.064;8.624;2024-01-10T02:12:27;23.03;;;20.53;;
9997;SDS011;5038;53.064;8.624;2024-01-10T02:14:55;21.10;;;18.67;;
9997;SDS011;5038;53.064;8.624;2024-01-10T02:17:24;21.87;;;19.03;;
9997;SDS011;5038;53.064;8.624;2024-01-10T02:20:08;22.57;;;19.90;;
9997;SDS011;5038;53.064;8.624;2024-01-10T02:22:36;27.57;;;20.60;;
9997;SDS011;5038;53.064;8.624;2024-01-10T02:25:07;22.87;;;20.10;;
9997;SDS011;5038;53.064;8.624;2024-01-10T02:27:36;24.40;;;20.50;;
9997;SDS011;5038;53.064;8.624;2024-01-10T02:30:05;23.07;;;20.60;;
9997;SDS011;5038;53.064;8.624;2024-01-10T02:32:35;23.47;;;20.97;;
9997;SDS011;5038;53.064;8.624;2024-01-10T02:35:03;25.33;;;20.90;;
9997;SDS011;5038;53.064;8.624;2024-01-10T02:37:32;23.80;;;21.30;;
9997;SDS011;5038;53.064;8.624;2024-01-10T02:40:01;25.20;;;21.67;;
9997;SDS011;5038;53.064;8.624;2024-01-10T02:42:31;24.47;;;21.30;;
9997;SDS011;5038;53.064;8.624;2024-01-10T02:45:00;26.87;;;21.80;;
9997;SDS011;5038;53.064;8.624;2024-01-10T02:47:28;23.97;;;21.23;;
9997;SDS011;5038;53.064;8.624;2024-01-10T02:49:56;25.13;;;21.90;;
9997;SDS011;5038;53.064;8.624;2024-01-10T02:52:24;26.23;;;22.40;;
9997;SDS011;5038;53.064;8.624;2024-01-10T02:54:53;24.23;;;20.73;;
9997;SDS011;5038;53.064;8.624;2024-01-10T02:57:21;22.53;;;20.13;;
9997;SDS011;5038;53.064;8.624;2024-01-10T02:59:50;22.83;;;20.33;;
9997;SDS011;5038;53.064;8.624;2024-01-10T03:02:19;27.63;;;22.03;;
9997;SDS011;5038;53.064;8.624;2024-01-10T03:04:47;27.37;;;24.23;;
9997;SDS011;5038;53.064;8.624;2024-01-10T03:07:15;28.37;;;22.40;;
9997;SDS011;5038;53.064;8.624;2024-01-10T03:09:43;25.40;;;21.97;;
9997;SDS011;5038;53.064;8.624;2024-01-10T03:12:12;25.00;;;22.20;;
9997;SDS011;5038;53.064;8.624;2024-01-10T03:14:40;25.23;;;22.10;;
9997;SDS011;5038;53.064;8.624;2024-01-10T03:17:10;24.53;;;21.07;;
9997;SDS011;5038;53.064;8.624;2024-01-10T03:19:38;23.87;;;21.37;;
9997;SDS011;5038;53.064;8.624;2024-01-10T03:22:10;25.40;;;22.57;;
9997;SDS011;5038;53.064;8.624;2024-01-10T03:24:38;27.33;;;24.33;;
9997;SDS011;5038;53.064;8.624;2024-01-10T03:27:07;24.03;;;21.40;;
9997;SDS011;5038;53.064;8.624;2024-01-10T03:29:36;23.23;;;20.50;;
9997;SDS011;5038;53.064;8.624;2024-01-10T03:32:04;24.73;;;21.80;;
9997;SDS011;5038;53.064;8.624;2024-01-10T03:34:34;26.10;;;21.90;;
9997;SDS011;5038;53.064;8.624;2024-01-10T03:37:03;23.10;;;20.70;;
9997;SDS011;5038;53.064;8.624;2024-01-10T03:39:32;25.93;;;21.97;;
9997;SDS011;5038;53.064;8.624;2024-01-10T03:42:00;23.83;;;21.37;;
9997;SDS011;5038;53.064;8.624;2024-01-10T03:44:28;28.73;;;22.93;;
9997;SDS011;5038;53.064;8.624;2024-01-10T03:46:56;25.93;;;21.07;;
9997;SDS011;5038;53.064;8.624;2024-01-10T03:49:25;25.50;;;20.50;;
9997;SDS011;5038;53.064;8.624;2024-01-10T03:51:54;25.33;;;22.23;;
9997;SDS011;5038;53.064;8.624;2024-01-10T03:54:22;24.30;;;21.80;;
9997;SDS011;5038;53.064;8.624;2024-01-10T03:56:51;26.20;;;23.40;;
9997;SDS011;5038;53.064;8.624;2024-01-10T03:59:19;24.80;;;22.20;;
9997;SDS011;5038;53.064;8.624;2024-01-10T04:01:47;25.90;;;21.60;;
9997;SDS011;5038;53.064;8.624;2024-01-10T04:04:16;25.17;;;22.23;;
9997;SDS011;5038;53.064;8.624;2024-01-10T04:06:44;23.50;;;21.00;;
9997;SDS011;5038;53.064;8.624;2024-01-10T04:09:14;23.40;;;20.73;;
9997;SDS011;5038;53.064;8.624;2024-01-10T04:11:42;27.20;;;22.97;;
9997;SDS011;5038;53.064;8.624;2024-01-10T04:14:10;26.23;;;23.33;;
9997;SDS011;5038;53.064;8.624;2024-01-10T04:16:39;25.40;;;22.60;;
9997;SDS011;5038;53.064;8.624;2024-01-10T04:19:07;27.80;;;23.30;;
9997;SDS011;5038;53.064;8.624;2024-01-10T04:21:36;31.30;;;25.97;;
9997;SDS011;5038;53.064;8.624;2024-01-10T04:24:04;27.53;;;24.63;;
9997;SDS011;5038;53.064;8.624;2024-01-10T04:26:34;29.80;;;25.93;;
9997;SDS011;5038;53.064;8.624;2024-01-10T04:29:02;26.30;;;23.50;;
9997;SDS011;5038;53.064;8.624;2024-01-10T04:31:30;30.33;;;25.80;;
9997;SDS011;5038;53.064;8.624;2024-01-10T04:33:58;28.03;;;24.90;;
9997;SDS011;5038;53.064;8.624;2024-01-10T04:36:27;27.10;;;24.30;;
9997;SDS011;5038;53.064;8.624;2024-01-10T04:38:55;28.17;;;25.13;;
9997;SDS011;5038;53.064;8.624;2024-01-10T04:41:23;28.00;;;24.53;;
9997;SDS011;5038;53.064;8.624;2024-01-10T04:43:53;29.07;;;25.30;;
9997;SDS011;5038;53.064;8.624;2024-01-10T04:46:21;31.40;;;25.03;;
9997;SDS011;5038;53.064;8.624;2024-01-10T04:48:50;30.87;;;26.43;;
9997;SDS011;5038;53.064;8.624;2024-01-10T04:51:18;29.20;;;24.90;;
9997;SDS011;5038;53.064;8.624;2024-01-10T04:53:46;27.47;;;24.53;;
9997;SDS011;5038;53.064;8.624;2024-01-10T04:56:15;31.33;;;25.50;;
9997;SDS011;5038;53.064;8.624;2024-01-10T04:58:43;29.43;;;26.27;;
9997;SDS011;5038;53.064;8.624;2024-01-10T05:01:14;32.63;;;26.57;;
9997;SDS011;5038;53.064;8.624;2024-01-10T05:03:41;29.77;;;25.47;;
9997;SDS011;5038;53.064;8.624;2024-01-10T05:06:10;28.93;;;25.37;;
9997;SDS011;5038;53.064;8.624;2024-01-10T05:08:38;31.10;;;25.60;;
9997;SDS011;5038;53.064;8.624;2024-01-10T05:11:07;30.97;;;25.00;;
9997;SDS011;5038;53.064;8.624;2024-01-10T05:13:35;27.87;;;24.83;;
9997;SDS011;5038;53.064;8.624;2024-01-10T05:16:04;29.00;;;25.80;;
9997;SDS011;5038;53.064;8.624;2024-01-10T05:18:34;32.63;;;27.17;;
9997;SDS011;5038;53.064;8.624;2024-01-10T05:21:02;31.43;;;25.80;;
9997;SDS011;5038;53.064;8.624;2024-01-10T05:23:31;31.50;;;24.93;;
9997;SDS011;5038;53.064;8.624;2024-01-10T05:25:59;32.60;;;25.33;;
9997;SDS011;5038;53.064;8.624;2024-01-10T05:28:27;26.93;;;24.03;;
9997;SDS011;5038;53.064;8.624;2024-01-10T05:30:56;31.50;;;23.83;;
9997;SDS011;5038;53.064;8.624;2024-01-10T05:33:24;21.90;;;18.27;;
9997;SDS011;5038;53.064;8.624;2024-01-10T05:35:54;30.43;;;24.60;;
9997;SDS011;5038;53.064;8.624;2024-01-10T05:38:22;33.30;;;25.93;;
9997;SDS011;5038;53.064;8.624;2024-01-10T05:40:50;28.83;;;24.27;;
9997;SDS011;5038;53.064;8.624;2024-01-10T05:43:19;30.33;;;25.13;;
9997;SDS011;5038;53.064;8.624;2024-01-10T05:45:48;30.03;;;25.47;;
9997;SDS011;5038;53.064;8.624;2024-01-10T05:48:16;30.97;;;25.63;;
9997;SDS011;5038;53.064;8.624;2024-01-10T05:50:44;30.03;;;23.87;;
9997;SDS011;5038;53.064;8.624;2024-01-10T05:53:14;29.43;;;24.53;;
9997;SDS011;5038;53.064;8.624;2024-01-10T05:55:43;30.67;;;25.43;;
9997;SDS011;5038;53.064;8.624;2024-01-10T05:58:12;31.50;;;25.43;;
9997;SDS011;5038;53.064;8.624;2024-01-10T06:00:40;29.93;;;25.70;;
9997;SDS011;5038;53.064;8.624;2024-01-10T06:03:08;26.87;;;23.73;;
9997;SDS011;5038;53.064;8.624;2024-01-10T06:05:36;31.40;;;25.63;;
9997;SDS011;5038;53.064;8.624;2024-01-10T06:08:05;27.97;;;24.47;;
9997;SDS011;5038;53.064;8.624;2024-01-10T06:10:35;30.43;;;24.47;;
9997;SDS011;5038;53.064;8.624;2024-01-10T06:13:04;29.80;;;24.90;;
9997;SDS011;5038;53.064;8.624;2024-01-10T06:15:32;28.73;;;23.60;;
9997;SDS011;5038;53.064;8.624;2024-01-10T06:18:01;30.53;;;24.23;;
9997;SDS011;5038;53.064;8.624;2024-01-10T06:20:29;31.63;;;25.63;;
9997;SDS011;5038;53.064;8.624;2024-01-10T06:22:59;31.57;;;25.17;;
9997;SDS011;5038;53.064;8.624;2024-01-10T06:25:27;27.67;;;22.80;;
9997;SDS011;5038;53.064;8.624;2024-01-10T06:27:57;29.20;;;24.20;;
9997;SDS011;5038;53.064;8.624;2024-01-10T06:30:25;29.73;;;24.30;;
9997;SDS011;5038;53.064;8.624;2024-01-10T06:32:57;31.77;;;25.77;;
9997;SDS011;5038;53.064;8.624;2024-01-10T06:35:25;28.00;;;23.73;;
9997;SDS011;5038;53.064;8.624;2024-01-10T06:37:54;31.43;;;23.40;;
9997;SDS011;5038;53.064;8.624;2024-01-10T06:40:22;27.60;;;22.23;;
9997;SDS011;5038;53.064;8.624;2024-01-10T06:42:50;26.50;;;22.60;;
9997;SDS011;5038;53.064;8.624;2024-01-10T06:45:20;28.13;;;22.83;;
9997;SDS011;5038;53.064;8.624;2024-01-10T06:47:48;28.60;;;22.57;;
9997;SDS011;5038;53.064;8.624;2024-01-10T06:50:16;29.77;;;22.80;;
9997;SDS011;5038;53.064;8.624;2024-01-10T06:52:47;27.13;;;22.00;;
9997;SDS011;5038;53.064;8.624;2024-01-10T06:55:15;27.30;;;22.03;;
9997;SDS011;5038;53.064;8.624;2024-01-10T06:57:44;32.47;;;23.43;;
9997;SDS011;5038;53.064;8.624;2024-01-10T07:00:15;29.83;;;23.20;;
9997;SDS011;5038;53.064;8.624;2024-01-10T07:02:45;34.27;;;23.60;;
9997;SDS011;5038;53.064;8.624;2024-01-10T07:05:15;26.00;;;20.93;;
9997;SDS011;5038;53.064;8.624;2024-01-10T07:07:44;26.27;;;20.57;;
9997;SDS011;5038;53.064;8.624;2024-01-10T07:10:12;19.87;;;17.33;;
9997;SDS011;5038;53.064;8.624;2024-01-10T07:12:41;27.23;;;19.70;;
9997;SDS011;5038;53.064;8.624;2024-01-10T07:15:09;22.60;;;19.07;;
9997;SDS011;5038;53.064;8.624;2024-01-10T07:17:37;30.37;;;21.47;;
9997;SDS011;5038;53.064;8.624;2024-01-10T07:20:09;26.30;;;20.47;;
9997;SDS011;5038;53.064;8.624;2024-01-10T07:22:39;26.53;;;20.87;;
9997;SDS011;5038;53.064;8.624;2024-01-10T07:25:07;28.83;;;22.30;;
9997;SDS011;5038;53.064;8.624;2024-01-10T07:27:36;28.23;;;21.33;;
9997;SDS011;5038;53.064;8.624;2024-01-10T07:30:06;29.50;;;21.10;;
9997;SDS011;5038;53.064;8.624;2024-01-10T07:32:40;24.50;;;21.50;;
9997;SDS011;5038;53.064;8.624;2024-01-10T07:35:10;26.33;;;21.17;;
9997;SDS011;5038;53.064;8.624;2024-01-10T07:37:40;27.37;;;21.20;;
9997;SDS011;5038;53.064;8.624;2024-01-10T07:40:10;23.73;;;19.77;;
9997;SDS011;5038;53.064;8.624;2024-01-10T07:42:40;24.57;;;20.70;;
9997;SDS011;5038;53.064;8.624;2024-01-10T07:45:10;28.17;;;21.20;;
9997;SDS011;5038;53.064;8.624;2024-01-10T07:47:38;23.03;;;20.13;;
9997;SDS011;5038;53.064;8.624;2024-01-10T07:50:06;29.20;;;20.10;;
9997;SDS011;5038;53.064;8.624;2024-01-10T07:52:37;27.37;;;21.80;;
9997;SDS011;5038;53.064;8.624;2024-01-10T07:55:07;30.00;;;20.60;;
9997;SDS011;5038;53.064;8.624;2024-01-10T07:57:35;28.63;;;20.53;;
9997;SDS011;5038;53.064;8.624;2024-01-10T08:00:04;25.03;;;19.83;;
9997;SDS011;5038;53.064;8.624;2024-01-10T08:02:37;26.97;;;21.93;;
9997;SDS011;5038;53.064;8.624;2024-01-10T08:05:06;27.67;;;22.17;;
9997;SDS011;5038;53.064;8.624;2024-01-10T08:07:37;27.83;;;22.10;;
9997;SDS011;5038;53.064;8.624;2024-01-10T08:10:06;25.13;;;20.40;;
9997;SDS011;5038;53.064;8.624;2024-01-10T08:12:35;27.33;;;21.73;;
9997;SDS011;5038;53.064;8.624;2024-01-10T08:15:04;26.77;;;21.93;;
9997;SDS011;5038;53.064;8.624;2024-01-10T08:17:33;27.60;;;22.33;;
9997;SDS011;5038;53.064;8.624;2024-01-10T08:20:04;25.70;;;20.37;;
9997;SDS011;5038;53.064;8.624;2024-01-10T08:22:35;29.20;;;22.40;;
9997;SDS011;5038;53.064;8.624;2024-01-10T08:25:05;24.13;;;21.20;;
9997;SDS011;5038;53.064;8.624;2024-01-10T08:27:34;30.77;;;20.53;;
9997;SDS011;5038;53.064;8.624;2024-01-10T08:30:02;24.10;;;20.27;;
9997;SDS011;5038;53.064;8.624;2024-01-10T08:32:32;24.00;;;20.33;;
9997;SDS011;5038;53.064;8.624;2024-01-10T08:35:02;28.27;;;22.93;;
9997;SDS011;5038;53.064;8.624;2024-01-10T08:37:32;26.60;;;20.53;;
9997;SDS011;5038;53.064;8.624;2024-01-10T08:40:00;26.27;;;20.47;;
9997;SDS011;5038;53.064;8.624;2024-01-10T08:42:34;29.60;;;22.80;;
9997;SDS011;5038;53.064;8.624;2024-01-10T08:45:02;33.13;;;22.80;;
9997;SDS011;5038;53.064;8.624;2024-01-10T08:47:31;29.50;;;19.83;;
9997;SDS011;5038;53.064;8.624;2024-01-10T08:50:01;29.27;;;21.00;;
9997;SDS011;5038;53.064;8.624;2024-01-10T08:52:31;31.83;;;21.17;;
9997;SDS011;5038;53.064;8.624;2024-01-10T08:54:59;32.37;;;22.03;;
9997;SDS011;5038;53.064;8.624;2024-01-10T08:57:28;29.77;;;21.17;;
9997;SDS011;5038;53.064;8.624;2024-01-10T08:59:57;25.53;;;20.97;;
9997;SDS011;5038;53.064;8.624;2024-01-10T09:02:26;26.63;;;20.13;;
9997;SDS011;5038;53.064;8.624;2024-01-10T09:04:55;28.90;;;20.63;;
9997;SDS011;5038;53.064;8.624;2024-01-10T09:07:23;27.00;;;20.03;;
9997;SDS011;5038;53.064;8.624;2024-01-10T09:09:51;26.93;;;19.57;;
9997;SDS011;5038;53.064;8.624;2024-01-10T09:12:19;31.17;;;20.87;;
9997;SDS011;5038;53.064;8.624;2024-01-10T09:14:48;26.83;;;19.43;;
9997;SDS011;5038;53.064;8.624;2024-01-10T09:17:18;25.43;;;18.93;;
9997;SDS011;5038;53.064;8.624;2024-01-10T09:19:47;25.37;;;18.30;;
9997;SDS011;5038;53.064;8.624;2024-01-10T09:22:15;21.40;;;15.60;;
9997;SDS011;5038;53.064;8.624;2024-01-10T09:24:43;25.27;;;18.03;;
9997;SDS011;5038;53.064;8.624;2024-01-10T09:27:11;28.67;;;19.20;;
9997;SDS011;5038;53.064;8.624;2024-01-10T09:29:39;24.50;;;17.70;;
9997;SDS011;5038;53.064;8.624;2024-01-10T09:32:09;26.30;;;17.67;;
9997;SDS011;5038;53.064;8.624;2024-01-10T09:34:39;24.33;;;17.87;;
9997;SDS011;5038;53.064;8.624;2024-01-10T09:37:07;24.73;;;17.07;;
9997;SDS011;5038;53.064;8.624;2024-01-10T09:39:35;22.00;;;17.10;;
9997;SDS011;5038;53.064;8.624;2024-01-10T09:42:04;27.17;;;19.00;;
9997;SDS011;5038;53.064;8.624;2024-01-10T09:44:33;20.43;;;15.83;;
9997;SDS011;5038;53.064;8.624;2024-01-10T09:47:01;20.07;;;16.40;;
9997;SDS011;5038;53.064;8.624;2024-01-10T09:49:29;23.37;;;16.90;;
9997;SDS011;5038;53.064;8.624;2024-01-10T09:52:01;23.90;;;17.70;;
9997;SDS011;5038;53.064;8.624;2024-01-10T09:54:32;24.37;;;17.43;;
9997;SDS011;5038;53.064;8.624;2024-01-10T09:57:03;24.33;;;16.73;;
9997;SDS011;5038;53.064;8.624;2024-01-10T09:59:32;28.03;;;17.83;;
9997;SDS011;5038;53.064;8.624;2024-01-10T10:02:00;20.77;;;14.97;;
9997;SDS011;5038;53.064;8.624;2024-01-10T10:04:31;20.40;;;15.10;;
9997;SDS011;5038;53.064;8.624;2024-01-10T10:07:00;17.10;;;13.93;;
9997;SDS011;5038;53.064;8.624;2024-01-10T10:09:30;19.90;;;15.40;;
9997;SDS011;5038;53.064;8.624;2024-01-10T10:11:59;20.30;;;15.50;;
9997;SDS011;5038;53.064;8.624;2024-01-10T10:14:28;21.23;;;15.90;;
9997;SDS011;5038;53.064;8.624;2024-01-10T10:16:57;21.23;;;15.10;;
9997;SDS011;5038;53.064;8.624;2024-01-10T10:19:43;20.03;;;15.30;;
9997;SDS011;5038;53.064;8.624;2024-01-10T10:22:15;19.27;;;14.60;;
9997;SDS011;5038;53.064;8.624;2024-01-10T10:24:48;18.23;;;14.80;;
9997;SDS011;5038;53.064;8.624;2024-01-10T10:27:16;20.93;;;16.10;;
9997;SDS011;5038;53.064;8.624;2024-01-10T10:29:44;20.20;;;15.77;;
9997;SDS011;5038;53.064;8.624;2024-01-10T10:32:14;22.80;;;15.80;;
9997;SDS011;5038;53.064;8.624;2024-01-10T10:34:45;20.30;;;15.30;;
9997;SDS011;5038;53.064;8.624;2024-01-10T10:37:14;16.60;;;14.10;;
9997;SDS011;5038;53.064;8.624;2024-01-10T10:39:42;23.03;;;13.57;;
9997;SDS011;5038;53.064;8.624;2024-01-10T10:42:11;18.13;;;14.47;;
9997;SDS011;5038;53.064;8.624;2024-01-10T10:44:42;19.03;;;14.10;;
9997;SDS011;5038;53.064;8.624;2024-01-10T10:47:12;17.80;;;13.20;;
9997;SDS011;5038;53.064;8.624;2024-01-10T10:49:46;16.03;;;14.23;;
9997;SDS011;5038;53.064;8.624;2024-01-10T10:52:22;18.40;;;14.17;;
9997;SDS011;5038;53.064;8.624;2024-01-10T10:54:51;18.20;;;13.10;;
9997;SDS011;5038;53.064;8.624;2024-01-10T10:57:23;19.43;;;14.53;;
9997;SDS011;5038;53.064;8.624;2024-01-10T10:59:53;15.87;;;12.23;;
9997;SDS011;5038;53.064;8.624;2024-01-10T11:02:24;15.23;;;11.97;;
9997;SDS011;5038;53.064;8.624;2024-01-10T11:04:57;16.50;;;13.10;;
9997;SDS011;5038;53.064;8.624;2024-01-10T11:07:28;16.30;;;13.17;;
9997;SDS011;5038;53.064;8.624;2024-01-10T11:09:57;15.07;;;11.90;;
9997;SDS011;5038;53.064;8.624;2024-01-10T11:12:29;19.53;;;13.20;;
9997;SDS011;5038;53.064;8.624;2024-01-10T11:15:14;15.27;;;12.90;;
9997;SDS011;5038;53.064;8.624;2024-01-10T11:17:57;13.90;;;11.03;;
9997;SDS011;5038;53.064;8.624;2024-01-10T11:20:51;14.80;;;11.47;;
9997;SDS011;5038;53.064;8.624;2024-01-10T11:23:37;15.30;;;11.37;;
9997;SDS011;5038;53.064;8.624;2024-01-10T11:26:07;13.57;;;11.40;;
9997;SDS011;5038;53.064;8.624;2024-01-10T11:28:36;14.90;;;10.63;;
9997;SDS011;5038;53.064;8.624;2024-01-10T11:31:05;13.67;;;11.20;;
9997;SDS011;5038;53.064;8.624;2024-01-10T11:33:35;14.80;;;11.20;;
9997;SDS011;5038;53.064;8.624;2024-01-10T11:36:12;16.40;;;12.07;;
9997;SDS011;5038;53.064;8.624;2024-01-10T11:38:43;17.03;;;12.67;;
9997;SDS011;5038;53.064;8.624;2024-01-10T11:41:20;15.33;;;11.40;;
9997;SDS011;5038;53.064;8.624;2024-01-10T11:47:06;14.83;;;11.30;;
9997;SDS011;5038;53.064;8.624;2024-01-10T11:49:35;13.70;;;11.60;;
9997;SDS011;5038;53.064;8.624;2024-01-10T11:52:04;13.53;;;11.63;;
9997;SDS011;5038;53.064;8.624;2024-01-10T11:54:41;15.77;;;13.10;;
9997;SDS011;5038;53.064;8.624;2024-01-10T11:57:12;17.50;;;14.43;;
9997;SDS011;5038;53.064;8.624;2024-01-10T11:59:42;16.30;;;12.27;;
9997;SDS011;5038;53.064;8.624;2024-01-10T12:02:11;16.00;;;12.77;;
9997;SDS011;5038;53.064;8.624;2024-01-10T12:04:41;14.40;;;11.53;;
9997;SDS011;5038;53.064;8.624;2024-01-10T12:07:14;18.00;;;14.80;;
9997;SDS011;5038;53.064;8.624;2024-01-10T12:09:47;22.60;;;13.80;;
9997;SDS011;5038;53.064;8.624;2024-01-10T12:12:16;14.83;;;12.00;;
9997;SDS011;5038;53.064;8.624;2024-01-10T12:14:44;13.57;;;10.67;;
9997;SDS011;5038;53.064;8.624;2024-01-10T12:17:13;16.67;;;12.50;;
9997;SDS011;5038;53.064;8.624;2024-01-10T12:19:42;12.57;;;9.90;;
9997;SDS011;5038;53.064;8.624;2024-01-10T12:22:13;14.40;;;10.20;;
9997;SDS011;5038;53.064;8.624;2024-01-10T12:24:45;15.63;;;12.30;;
9997;SDS011;5038;53.064;8.624;2024-01-10T12:27:18;14.40;;;10.10;;
9997;SDS011;5038;53.064;8.624;2024-01-10T12:29:48;12.97;;;9.53;;
9997;SDS011;5038;53.064;8.624;2024-01-10T12:32:19;12.73;;;10.07;;
9997;SDS011;5038;53.064;8.624;2024-01-10T12:34:54;14.47;;;11.07;;
9997;SDS011;5038;53.064;8.624;2024-01-10T12:37:25;13.03;;;9.13;;
9997;SDS011;5038;53.064;8.624;2024-01-10T12:39:55;14.13;;;10.00;;
9997;SDS011;5038;53.064;8.624;2024-01-10T12:42:23;13.17;;;9.23;;
9997;SDS011;5038;53.064;8.624;2024-01-10T12:44:52;10.57;;;8.87;;
9997;SDS011;5038;53.064;8.624;2024-01-10T12:47:21;10.60;;;8.90;;
9997;SDS011;5038;53.064;8.624;2024-01-10T12:49:50;11.30;;;8.70;;
9997;SDS011;5038;53.064;8.624;2024-01-10T12:52:20;11.30;;;9.93;;
9997;SDS011;5038;53.064;8.624;2024-01-10T12:54:50;10.93;;;8.93;;
9997;SDS011;5038;53.064;8.624;2024-01-10T12:57:20;11.17;;;8.57;;
9997;SDS011;5038;53.064;8.624;2024-01-10T12:59:50;10.90;;;8.50;;
9997;SDS011;5038;53.064;8.624;2024-01-10T13:02:18;12.77;;;9.13;;
9997;SDS011;5038;53.064;8.624;2024-01-10T13:04:46;10.93;;;8.40;;
9997;SDS011;5038;53.064;8.624;2024-01-10T13:07:15;12.17;;;9.33;;
9997;SDS011;5038;53.064;8.624;2024-01-10T13:09:43;11.70;;;8.43;;
9997;SDS011;5038;53.064;8.624;2024-01-10T13:12:12;9.33;;;7.80;;
9997;SDS011;5038;53.064;8.624;2024-01-10T13:14:41;10.40;;;8.03;;
9997;SDS011;5038;53.064;8.624;2024-01-10T13:17:10;12.87;;;8.97;;
9997;SDS011;5038;53.064;8.624;2024-01-10T13:19:38;8.73;;;7.53;;
9997;SDS011;5038;53.064;8.624;2024-01-10T13:22:06;12.77;;;9.10;;
9997;SDS011;5038;53.064;8.624;2024-01-10T13:24:36;11.10;;;8.67;;
9997;SDS011;5038;53.064;8.624;2024-01-10T13:27:04;10.33;;;9.23;;
9997;SDS011;5038;53.064;8.624;2024-01-10T13:29:32;10.60;;;8.20;;
9997;SDS011;5038;53.064;8.624;2024-01-10T13:32:03;12.47;;;8.83;;
9997;SDS011;5038;53.064;8.624;2024-01-10T13:34:32;10.83;;;8.57;;
9997;SDS011;5038;53.064;8.624;2024-01-10T13:37:00;11.60;;;8.40;;
9997;SDS011;5038;53.064;8.624;2024-01-10T13:39:29;10.73;;;8.83;;
9997;SDS011;5038;53.064;8.624;2024-01-10T13:42:00;10.63;;;8.87;;
9997;SDS011;5038;53.064;8.624;2024-01-10T13:44:28;11.20;;;8.23;;
9997;SDS011;5038;53.064;8.624;2024-01-10T13:46:57;11.17;;;9.30;;
9997;SDS011;5038;53.064;8.624;2024-01-10T13:49:26;11.03;;;9.07;;
9997;SDS011;5038;53.064;8.624;2024-01-10T13:51:55;11.40;;;9.13;;
9997;SDS011;5038;53.064;8.624;2024-01-10T13:54:23;12.00;;;10.33;;
9997;SDS011;5038;53.064;8.624;2024-01-10T13:56:51;9.57;;;8.57;;
9997;SDS011;5038;53.064;8.624;2024-01-10T13:59:20;13.30;;;9.80;;
9997;SDS011;5038;53.064;8.624;2024-01-10T14:01:48;10.13;;;9.00;;
9997;SDS011;5038;53.064;8.624;2024-01-10T14:04:17;8.50;;;7.03;;
9997;SDS011;5038;53.064;8.624;2024-01-10T14:06:47;12.50;;;10.53;;
9997;SDS011;5038;53.064;8.624;2024-01-10T14:09:17;9.80;;;7.43;;
9997;SDS011;5038;53.064;8.624;2024-01-10T14:11:51;14.87;;;9.93;;
9997;SDS011;5038;53.064;8.624;2024-01-10T14:14:19;12.77;;;9.43;;
9997;SDS011;5038;53.064;8.624;2024-01-10T14:16:52;9.70;;;7.90;;
9997;SDS011;5038;53.064;8.624;2024-01-10T14:19:20;9.63;;;7.43;;
9997;SDS011;5038;53.064;8.624;2024-01-10T14:21:50;11.13;;;9.70;;
9997;SDS011;5038;53.064;8.624;2024-01-10T14:24:18;9.67;;;8.67;;
9997;SDS011;5038;53.064;8.624;2024-01-10T14:26:46;9.20;;;7.90;;
9997;SDS011;5038;53.064;8.624;2024-01-10T14:29:15;10.30;;;7.50;;
9997;SDS011;5038;53.064;8.624;2024-01-10T14:31:43;11.03;;;8.30;;
9997;SDS011;5038;53.064;8.624;2024-01-10T14:34:31;13.70;;;9.40;;
9997;SDS011;5038;53.064;8.624;2024-01-10T14:37:01;10.70;;;8.40;;
9997;SDS011;5038;53.064;8.624;2024-01-10T14:39:29;12.63;;;8.90;;
9997;SDS011;5038;53.064;8.624;2024-01-10T14:42:00;11.40;;;8.80;;
9997;SDS011;5038;53.064;8.624;2024-01-10T14:44:29;11.10;;;8.10;;
9997;SDS011;5038;53.064;8.624;2024-01-10T14:46:57;10.80;;;9.27;;
9997;SDS011;5038;53.064;8.624;2024-01-10T14:49:36;11.00;;;9.13;;
9997;SDS011;5038;53.064;8.624;2024-01-10T14:52:06;11.87;;;9.70;;
9997;SDS011;5038;53.064;8.624;2024-01-10T14:54:34;12.27;;;9.70;;
9997;SDS011;5038;53.064;8.624;2024-01-10T14:57:02;13.20;;;11.23;;
9997;SDS011;5038;53.064;8.624;2024-01-10T14:59:30;12.53;;;10.50;;
9997;SDS011;5038;53.064;8.624;2024-01-10T15:02:11;14.03;;;10.83;;
9997;SDS011;5038;53.064;8.624;2024-01-10T15:04:39;14.50;;;10.73;;
9997;SDS011;5038;53.064;8.624;2024-01-10T15:07:09;13.63;;;10.30;;